Time;durP1;ratioP1;P1;durP2;ratioP2;P2;SDS_P1;SDS_P2;PMS_P1;PMS_P2;Temp;Humidity;BMP_temperature;BMP_pressure;BME280_temperature;BME280_humidity;BME280_pressure;Samples;Min_cycle;Max_cycle;Signal;HPM_P1;HPM_P2
2022/01/28 00:01:02;;;;;;;;;;;20.10;40.80;;;;;;5134084;27;19968;-42
2022/01/28 00:03:28;;;;;;;;;;;20.10;40.90;;;;;;5120143;27;20387;-43
2022/01/28 00:05:55;;;;;;;;;;;20.10;40.80;;;;;;5120330;27;20002;-43
2022/01/28 00:08:22;;;;;;;;;;;20.10;40.90;;;;;;5112607;27;19951;-44
2022/01/28 00:10:51;;;;;;;;;;;20.10;40.90;;;;;;5113460;27;19923;-45
2022/01/28 00:13:37;;;;;;;;;;;20.10;40.90;;;;;;5117989;27;20014;-45
2022/01/28 00:19:43;;;;;;;;;;;20.10;40.90;;;;;;5138220;27;20274;-44
2022/01/28 00:38:45;;;;;;;;;;;20.10;41.10;;;;;;5112471;27;19919;-43
2022/01/28 00:41:11;;;;;;;;;;;20.10;41.10;;;;;;5131174;27;19953;-42
2022/01/28 00:43:42;;;;;;;;;;;20.10;41.10;;;;;;5128700;27;19920;-43
2022/01/28 00:46:08;;;;;;;;;;;20.10;41.10;;;;;;5113172;28;19931;-46
2022/01/28 00:48:35;;;;;;;;;;;20.10;41.10;;;;;;5129390;27;19919;-45
2022/01/28 00:51:02;;;;;;;;;;;20.10;41.10;;;;;;5099014;27;19926;-42
2022/01/28 00:53:29;;;;;;;;;;;20.10;41.10;;;;;;5126368;27;20329;-44
2022/01/28 00:55:57;;;;;;;;;;;20.10;41.10;;;;;;5118179;27;20007;-43
2022/01/28 00:58:24;;;;;;;;;;;20.10;41.10;;;;;;5097847;28;19968;-43
2022/01/28 01:00:52;;;;;;;;;;;20.10;41.20;;;;;;5110384;27;19924;-46
2022/01/28 01:03:18;;;;;;;;;;;20.10;41.10;;;;;;5116436;28;20284;-42
2022/01/28 01:05:46;;;;;;;;;;;20.10;41.20;;;;;;5116277;28;19920;-45
2022/01/28 01:08:14;;;;;;;;;;;20.10;41.20;;;;;;5130654;27;20253;-43
2022/01/28 01:10:40;;;;;;;;;;;20.10;41.20;;;;;;5128909;27;19934;-45
2022/01/28 01:13:08;;;;;;;;;;;20.10;41.20;;;;;;5094827;28;20332;-44
2022/01/28 01:15:38;;;;;;;;;;;20.10;41.20;;;;;;5115781;27;19931;-46
2022/01/28 01:18:15;;;;;;;;;;;20.10;41.20;;;;;;5135021;27;19919;-47
2022/01/28 01:21:01;;;;;;;;;;;20.10;41.30;;;;;;5133587;27;19919;-43
2022/01/28 01:23:31;;;;;;;;;;;20.10;41.20;;;;;;5131914;27;19938;-43
2022/01/28 01:26:06;;;;;;;;;;;20.10;41.30;;;;;;5136544;27;19919;-44
2022/01/28 01:28:38;;;;;;;;;;;20.10;41.30;;;;;;5132818;27;19919;-43
2022/01/28 01:31:05;;;;;;;;;;;20.10;41.30;;;;;;5119516;27;19972;-45
2022/01/28 01:33:38;;;;;;;;;;;20.10;41.30;;;;;;5097578;28;20372;-43
2022/01/28 01:36:05;;;;;;;;;;;20.10;41.30;;;;;;5097702;28;19920;-43
2022/01/28 01:38:36;;;;;;;;;;;20.10;41.30;;;;;;5108854;27;19927;-42
2022/01/28 01:41:06;;;;;;;;;;;20.10;41.30;;;;;;5116434;27;19998;-44
2022/01/28 01:43:46;;;;;;;;;;;20.10;41.30;;;;;;5116127;27;19919;-42
2022/01/28 01:46:23;;;;;;;;;;;20.10;41.30;;;;;;5115147;28;19923;-43
2022/01/28 01:54:25;;;;;;;;;;;20.10;41.40;;;;;;5149622;27;19926;-42
2022/01/28 01:56:52;;;;;;;;;;;20.10;41.40;;;;;;5113890;27;20034;-42
2022/01/28 01:59:19;;;;;;;;;;;20.10;41.40;;;;;;5128756;27;19928;-43
2022/01/28 02:01:45;;;;;;;;;;;20.10;41.40;;;;;;5094004;28;19927;-42
2022/01/28 02:04:13;;;;;;;;;;;20.10;41.40;;;;;;5097603;28;19969;-44
2022/01/28 02:06:41;;;;;;;;;;;20.10;41.40;;;;;;5107759;27;19923;-45
2022/01/28 02:09:08;;;;;;;;;;;20.10;41.50;;;;;;5135063;27;19969;-49
2022/01/28 02:11:35;;;;;;;;;;;20.10;41.50;;;;;;5112933;27;19926;-43
2022/01/28 02:14:02;;;;;;;;;;;20.10;41.50;;;;;;5093615;28;19926;-42
2022/01/28 02:16:29;;;;;;;;;;;20.10;41.50;;;;;;5131434;27;20420;-42
2022/01/28 02:18:56;;;;;;;;;;;20.10;41.50;;;;;;5131658;27;19966;-43
2022/01/28 02:21:24;;;;;;;;;;;20.10;41.50;;;;;;5132112;27;19927;-42
2022/01/28 02:23:55;;;;;;;;;;;20.10;41.50;;;;;;5117744;27;19920;-42
2022/01/28 02:26:22;;;;;;;;;;;20.10;41.50;;;;;;5135645;27;20324;-41
2022/01/28 02:28:53;;;;;;;;;;;20.10;41.50;;;;;;5112501;27;20006;-42
2022/01/28 02:31:23;;;;;;;;;;;20.10;41.50;;;;;;5115550;28;20424;-41
2022/01/28 02:33:52;;;;;;;;;;;20.20;41.60;;;;;;5117311;28;19926;-43
2022/01/28 02:36:18;;;;;;;;;;;20.10;41.50;;;;;;5112622;28;19927;-43
2022/01/28 02:38:46;;;;;;;;;;;20.10;41.50;;;;;;5110138;28;19920;-42
2022/01/28 02:41:13;;;;;;;;;;;20.10;41.50;;;;;;5129228;28;19920;-42
2022/01/28 02:43:44;;;;;;;;;;;20.10;41.50;;;;;;5128503;28;19923;-42
2022/01/28 02:46:13;;;;;;;;;;;20.10;41.50;;;;;;5130710;28;19923;-43
2022/01/28 02:48:50;;;;;;;;;;;20.10;41.50;;;;;;5128789;28;20521;-43
2022/01/28 02:51:19;;;;;;;;;;;20.10;41.50;;;;;;5128495;28;19927;-42
2022/01/28 02:53:52;;;;;;;;;;;20.10;41.60;;;;;;5131436;27;19920;-41
2022/01/28 02:56:21;;;;;;;;;;;20.10;41.60;;;;;;5128550;27;19919;-42
2022/01/28 02:58:47;;;;;;;;;;;20.10;41.60;;;;;;5134179;27;19922;-41
2022/01/28 03:01:18;;;;;;;;;;;20.10;41.50;;;;;;5138035;27;20047;-42
2022/01/28 03:03:45;;;;;;;;;;;20.20;41.60;;;;;;5138008;27;20364;-44
2022/01/28 03:06:12;;;;;;;;;;;20.10;41.60;;;;;;5111029;27;19934;-41
2022/01/28 03:08:42;;;;;;;;;;;20.10;41.60;;;;;;5121178;27;19920;-44
2022/01/28 03:14:02;;;;;;;;;;;20.10;41.60;;;;;;5121141;27;19919;-43
2022/01/28 03:16:32;;;;;;;;;;;20.10;41.60;;;;;;5121536;27;19920;-42
2022/01/28 03:19:01;;;;;;;;;;;20.10;41.60;;;;;;5106127;27;19931;-42
2022/01/28 03:21:41;;;;;;;;;;;20.10;42.20;;;;;;5136028;27;20005;-44
2022/01/28 03:24:09;;;;;;;;;;;20.10;41.60;;;;;;5137562;27;19920;-42
2022/01/28 03:26:37;;;;;;;;;;;20.10;41.60;;;;;;5134318;27;19919;-42
2022/01/28 03:29:10;;;;;;;;;;;20.10;41.60;;;;;;5120129;27;20015;-41
2022/01/28 03:31:38;;;;;;;;;;;20.20;41.70;;;;;;5120746;27;19919;-42
2022/01/28 03:34:05;;;;;;;;;;;20.20;41.70;;;;;;5113981;27;20008;-43
2022/01/28 03:36:31;;;;;;;;;;;20.10;41.60;;;;;;5119714;27;20018;-42
2022/01/28 03:39:00;;;;;;;;;;;20.10;41.70;;;;;;5121077;27;20359;-42
2022/01/28 03:41:27;;;;;;;;;;;20.20;41.70;;;;;;5151286;27;19945;-45
2022/01/28 03:43:58;;;;;;;;;;;20.10;41.60;;;;;;5116970;27;20249;-42
2022/01/28 03:46:25;;;;;;;;;;;20.10;41.70;;;;;;5154592;27;20314;-41
2022/01/28 03:48:51;;;;;;;;;;;20.10;41.70;;;;;;5114927;28;19981;-44
2022/01/28 03:51:18;;;;;;;;;;;20.10;41.70;;;;;;5099763;28;19919;-44
2022/01/28 03:53:45;;;;;;;;;;;20.10;41.70;;;;;;5100181;28;19966;-42
2022/01/28 03:56:14;;;;;;;;;;;20.10;41.70;;;;;;5097493;27;19930;-41
2022/01/28 03:58:40;;;;;;;;;;;20.10;41.70;;;;;;5119689;27;19919;-42
2022/01/28 04:01:15;;;;;;;;;;;20.10;41.70;;;;;;5119736;27;19919;-43
2022/01/28 04:03:48;;;;;;;;;;;20.20;41.80;;;;;;5133209;27;20053;-41
2022/01/28 04:11:48;;;;;;;;;;;20.20;41.80;;;;;;5112861;28;20375;-43
2022/01/28 04:14:21;;;;;;;;;;;20.10;41.70;;;;;;5099213;28;20373;-42
2022/01/28 04:19:37;;;;;;;;;;;20.10;41.70;;;;;;5115051;28;19927;-45
2022/01/28 04:22:04;;;;;;;;;;;20.10;42.30;;;;;;5097428;28;20245;-41
2022/01/28 04:24:31;;;;;;;;;;;20.10;41.70;;;;;;5096517;27;20415;-43
2022/01/28 04:26:58;;;;;;;;;;;20.10;41.70;;;;;;5135846;27;20368;-43
2022/01/28 04:29:25;;;;;;;;;;;20.10;41.70;;;;;;5118294;27;19920;-45
2022/01/28 04:31:53;;;;;;;;;;;20.10;41.70;;;;;;5103020;27;20006;-45
2022/01/28 04:34:22;;;;;;;;;;;20.10;41.70;;;;;;5116493;27;19957;-42
2022/01/28 04:36:58;;;;;;;;;;;20.10;41.70;;;;;;5117351;27;19920;-43
2022/01/28 04:39:31;;;;;;;;;;;20.10;41.80;;;;;;5136409;27;20018;-42
2022/01/28 04:42:06;;;;;;;;;;;20.10;41.70;;;;;;5116075;28;19942;-44
2022/01/28 04:44:41;;;;;;;;;;;20.20;41.90;;;;;;5100723;27;19988;-45
2022/01/28 04:47:16;;;;;;;;;;;20.10;41.80;;;;;;5114929;27;20368;-44
2022/01/28 04:49:56;;;;;;;;;;;20.20;41.90;;;;;;5137497;27;19923;-42
2022/01/28 04:55:41;;;;;;;;;;;20.10;41.80;;;;;;5143911;27;19920;-45
2022/01/28 04:58:19;;;;;;;;;;;20.10;41.80;;;;;;5115385;27;19919;-44
2022/01/28 05:01:05;;;;;;;;;;;20.10;41.80;;;;;;5124276;27;20017;-42
2022/01/28 05:03:52;;;;;;;;;;;20.10;41.80;;;;;;5115762;27;20365;-42
2022/01/28 05:15:05;;;;;;;;;;;20.10;41.80;;;;;;5125657;27;19920;-45
2022/01/28 05:23:29;;;;;;;;;;;20.20;41.90;;;;;;5116107;27;20015;-42
2022/01/28 05:26:23;;;;;;;;;;;20.10;41.80;;;;;;5130133;27;19973;-42
2022/01/28 05:28:50;;;;;;;;;;;20.10;41.80;;;;;;5122854;27;19919;-41
2022/01/28 05:31:17;;;;;;;;;;;20.10;41.80;;;;;;5112229;27;20335;-41
2022/01/28 05:33:43;;;;;;;;;;;20.20;41.90;;;;;;5118194;27;19974;-43
2022/01/28 05:36:14;;;;;;;;;;;20.10;41.80;;;;;;5118332;27;19945;-42
2022/01/28 05:38:41;;;;;;;;;;;20.10;41.80;;;;;;5132542;27;19951;-41
2022/01/28 05:41:08;;;;;;;;;;;20.20;41.90;;;;;;5117660;27;19920;-41
2022/01/28 05:43:35;;;;;;;;;;;20.10;41.80;;;;;;5115776;27;20014;-42
2022/01/28 05:46:01;;;;;;;;;;;20.10;41.90;;;;;;5114135;27;19920;-42
2022/01/28 05:48:28;;;;;;;;;;;20.20;42.00;;;;;;5117751;27;19919;-43
2022/01/28 05:50:55;;;;;;;;;;;20.20;42.00;;;;;;5116082;27;19942;-42
2022/01/28 05:53:25;;;;;;;;;;;20.10;41.90;;;;;;5113060;27;20324;-41
2022/01/28 05:55:51;;;;;;;;;;;20.20;42.00;;;;;;5135702;27;19919;-43
2022/01/28 05:58:19;;;;;;;;;;;20.20;42.00;;;;;;5116100;27;19919;-41
2022/01/28 06:00:46;;;;;;;;;;;20.20;42.00;;;;;;5114073;27;20325;-42
2022/01/28 06:03:12;;;;;;;;;;;20.20;42.00;;;;;;5116829;27;19959;-43
2022/01/28 06:05:39;;;;;;;;;;;20.10;41.90;;;;;;5115656;27;19919;-44
2022/01/28 06:08:08;;;;;;;;;;;20.20;42.00;;;;;;5108357;27;20396;-42
2022/01/28 06:10:36;;;;;;;;;;;20.10;41.90;;;;;;5103925;28;19919;-41
2022/01/28 06:13:07;;;;;;;;;;;20.10;41.90;;;;;;5131489;27;19919;-42
2022/01/28 06:15:34;;;;;;;;;;;20.20;42.00;;;;;;5126616;27;20214;-41
2022/01/28 06:18:01;;;;;;;;;;;20.20;42.10;;;;;;5114855;28;20360;-41
2022/01/28 06:20:28;;;;;;;;;;;20.20;42.00;;;;;;5113431;28;19920;-41
2022/01/28 06:22:55;;;;;;;;;;;20.10;42.00;;;;;;5093483;28;19927;-41
2022/01/28 06:25:22;;;;;;;;;;;20.10;41.90;;;;;;5097342;28;19920;-41
2022/01/28 06:27:50;;;;;;;;;;;20.10;41.90;;;;;;5096720;28;19927;-42
2022/01/28 06:30:18;;;;;;;;;;;20.20;42.00;;;;;;5111992;28;19923;-41
2022/01/28 06:32:45;;;;;;;;;;;20.20;42.10;;;;;;5095343;28;19920;-44
2022/01/28 06:35:11;;;;;;;;;;;20.10;42.00;;;;;;5095083;28;19926;-41
2022/01/28 06:37:38;;;;;;;;;;;20.10;41.90;;;;;;5093001;27;20330;-44
2022/01/28 06:40:06;;;;;;;;;;;20.10;42.00;;;;;;5134438;27;19975;-41
2022/01/28 06:42:32;;;;;;;;;;;20.20;42.10;;;;;;5129062;28;20276;-42
2022/01/28 06:45:01;;;;;;;;;;;20.10;41.90;;;;;;5113767;28;19919;-42
2022/01/28 06:47:27;;;;;;;;;;;20.10;41.90;;;;;;5115790;28;19920;-43
2022/01/28 06:49:54;;;;;;;;;;;20.10;41.90;;;;;;5115484;28;19931;-42
2022/01/28 06:52:21;;;;;;;;;;;20.20;42.00;;;;;;5113763;27;20375;-43
2022/01/28 06:54:48;;;;;;;;;;;20.20;42.00;;;;;;5134546;27;19919;-47
2022/01/28 06:57:15;;;;;;;;;;;20.20;42.00;;;;;;5149147;27;19919;-42
2022/01/28 06:59:41;;;;;;;;;;;20.20;42.10;;;;;;5147009;27;20368;-42
2022/01/28 07:02:09;;;;;;;;;;;20.10;41.90;;;;;;5115869;28;20018;-43
2022/01/28 07:04:36;;;;;;;;;;;20.10;42.00;;;;;;5116537;28;20009;-42
2022/01/28 07:07:03;;;;;;;;;;;20.20;42.10;;;;;;5114984;28;19920;-45
2022/01/28 07:09:30;;;;;;;;;;;20.10;42.00;;;;;;5129571;28;20018;-43
2022/01/28 07:11:56;;;;;;;;;;;20.10;42.00;;;;;;5111898;28;19926;-43
2022/01/28 07:14:26;;;;;;;;;;;20.20;42.10;;;;;;5131277;28;19926;-42
2022/01/28 07:16:53;;;;;;;;;;;20.20;42.10;;;;;;5110987;28;20322;-44
2022/01/28 07:19:21;;;;;;;;;;;20.10;42.00;;;;;;5112119;28;19981;-43
2022/01/28 07:21:48;;;;;;;;;;;20.10;42.00;;;;;;5114321;28;19919;-42
2022/01/28 07:24:15;;;;;;;;;;;20.10;42.00;;;;;;5111456;28;19928;-44
2022/01/28 07:26:41;;;;;;;;;;;20.20;42.10;;;;;;5134798;28;19925;-45
2022/01/28 07:29:09;;;;;;;;;;;20.10;42.00;;;;;;5113178;28;19988;-44
2022/01/28 07:31:38;;;;;;;;;;;20.20;42.10;;;;;;5111023;28;20173;-42
2022/01/28 07:34:06;;;;;;;;;;;20.20;42.10;;;;;;5101144;27;19919;-43
2022/01/28 07:36:33;;;;;;;;;;;20.20;42.10;;;;;;5106166;28;19926;-45
2022/01/28 07:39:00;;;;;;;;;;;20.10;42.00;;;;;;5101728;28;19919;-42
2022/01/28 07:41:27;;;;;;;;;;;20.20;42.10;;;;;;5125684;27;19923;-46
2022/01/28 07:43:54;;;;;;;;;;;20.10;42.00;;;;;;5107711;27;19920;-42
2022/01/28 07:46:23;;;;;;;;;;;20.20;42.70;;;;;;5110390;27;19969;-43
2022/01/28 07:48:50;;;;;;;;;;;20.20;42.00;;;;;;5126948;27;19964;-45
2022/01/28 07:51:17;;;;;;;;;;;20.20;42.00;;;;;;5111025;27;19919;-48
2022/01/28 07:53:45;;;;;;;;;;;20.20;42.10;;;;;;5107799;27;19932;-45
2022/01/28 07:56:13;;;;;;;;;;;20.20;41.60;;;;;;5108658;27;19972;-45
2022/01/28 07:58:40;;;;;;;;;;;20.10;40.70;;;;;;5146036;27;20013;-44
2022/01/28 08:01:06;;;;;;;;;;;20.10;40.20;;;;;;5127478;27;19926;-44
2022/01/28 08:03:34;;;;;;;;;;;20.10;39.90;;;;;;5102038;27;20568;-54
2022/01/28 08:06:02;;;;;;;;;;;20.00;39.30;;;;;;5105277;27;19923;-48
2022/01/28 08:08:30;;;;;;;;;;;20.00;38.90;;;;;;5113357;27;19931;-48
2022/01/28 08:10:58;;;;;;;;;;;19.90;38.60;;;;;;5109710;27;19923;-42
2022/01/28 08:13:25;;;;;;;;;;;19.90;38.50;;;;;;5110906;27;19990;-44
2022/01/28 08:15:52;;;;;;;;;;;19.90;38.80;;;;;;5129212;27;19920;-44
2022/01/28 08:18:19;;;;;;;;;;;19.90;39.10;;;;;;5108978;27;19920;-47
2022/01/28 08:20:46;;;;;;;;;;;19.90;39.30;;;;;;5111260;27;20384;-47
2022/01/28 08:23:13;;;;;;;;;;;19.90;39.60;;;;;;5107340;27;20362;-46
2022/01/28 08:25:40;;;;;;;;;;;19.90;39.70;;;;;;5110948;27;19951;-47
2022/01/28 08:28:08;;;;;;;;;;;19.90;39.90;;;;;;5109291;27;19933;-46
2022/01/28 08:30:37;;;;;;;;;;;19.90;40.00;;;;;;5126742;27;19923;-48
2022/01/28 08:33:04;;;;;;;;;;;19.90;40.00;;;;;;5109993;27;19980;-46
2022/01/28 08:35:34;;;;;;;;;;;20.00;40.20;;;;;;5107455;27;19945;-43
2022/01/28 08:38:01;;;;;;;;;;;20.00;40.20;;;;;;5108133;27;20412;-45
2022/01/28 08:40:28;;;;;;;;;;;20.00;40.20;;;;;;5144763;27;20447;-45
2022/01/28 08:42:55;;;;;;;;;;;20.00;40.30;;;;;;5128660;27;20000;-43
2022/01/28 08:45:23;;;;;;;;;;;20.00;40.40;;;;;;5109093;27;20249;-46
2022/01/28 08:47:50;;;;;;;;;;;20.00;40.40;;;;;;5110621;27;20372;-44
2022/01/28 08:50:17;;;;;;;;;;;20.10;40.50;;;;;;5109545;27;19931;-42
2022/01/28 08:52:46;;;;;;;;;;;20.10;40.50;;;;;;5109361;27;19919;-43
2022/01/28 08:55:13;;;;;;;;;;;20.00;40.50;;;;;;5126753;27;20306;-43
2022/01/28 08:57:43;;;;;;;;;;;20.10;40.60;;;;;;5106356;27;19985;-43
2022/01/28 09:00:11;;;;;;;;;;;20.10;40.60;;;;;;5112815;27;19923;-44
2022/01/28 09:02:39;;;;;;;;;;;20.10;40.70;;;;;;5110175;27;20276;-45
2022/01/28 09:05:06;;;;;;;;;;;20.10;40.80;;;;;;5112359;27;20328;-42
2022/01/28 09:07:33;;;;;;;;;;;20.10;40.70;;;;;;5108348;27;19927;-47
2022/01/28 09:10:05;;;;;;;;;;;20.10;40.80;;;;;;5110683;27;19919;-46
2022/01/28 09:12:38;;;;;;;;;;;20.10;40.80;;;;;;5128772;27;19919;-45
2022/01/28 09:15:05;;;;;;;;;;;20.20;40.90;;;;;;5108069;27;20313;-45
2022/01/28 09:17:32;;;;;;;;;;;20.10;40.80;;;;;;5126126;27;19963;-42
2022/01/28 09:20:02;;;;;;;;;;;20.20;40.90;;;;;;5111144;27;19919;-51
2022/01/28 09:22:28;;;;;;;;;;;20.20;41.00;;;;;;5110067;27;19926;-48
2022/01/28 09:24:56;;;;;;;;;;;20.20;41.00;;;;;;5108344;27;20018;-44
2022/01/28 09:27:22;;;;;;;;;;;20.20;41.00;;;;;;5108479;27;19926;-47
2022/01/28 09:29:49;;;;;;;;;;;20.20;41.00;;;;;;5102361;27;19919;-50
2022/01/28 09:32:17;;;;;;;;;;;20.20;41.10;;;;;;5113077;27;19967;-43
2022/01/28 09:34:44;;;;;;;;;;;20.20;41.00;;;;;;5091511;27;19984;-50
2022/01/28 09:37:13;;;;;;;;;;;20.20;41.10;;;;;;5105420;27;20332;-45
2022/01/28 09:39:43;;;;;;;;;;;20.20;41.10;;;;;;5116513;27;19926;-45
2022/01/28 09:42:12;;;;;;;;;;;20.30;41.20;;;;;;5104212;27;20020;-45
2022/01/28 09:44:39;;;;;;;;;;;20.20;41.10;;;;;;5094583;27;19931;-43
2022/01/28 09:47:06;;;;;;;;;;;20.20;41.10;;;;;;5103188;27;20392;-48
2022/01/28 09:49:33;;;;;;;;;;;20.20;41.20;;;;;;5104686;27;19930;-46
2022/01/28 09:52:00;;;;;;;;;;;20.30;41.30;;;;;;5129722;27;19948;-46
2022/01/28 09:54:28;;;;;;;;;;;20.30;41.30;;;;;;5098710;27;19978;-46
2022/01/28 09:56:55;;;;;;;;;;;20.30;41.30;;;;;;5099652;27;19943;-45
2022/01/28 09:59:22;;;;;;;;;;;20.30;41.30;;;;;;5105241;27;19919;-42
2022/01/28 10:01:49;;;;;;;;;;;20.30;41.30;;;;;;5105456;27;20342;-46
2022/01/28 10:04:17;;;;;;;;;;;20.30;41.30;;;;;;5106117;27;19947;-47
2022/01/28 10:06:45;;;;;;;;;;;20.30;41.30;;;;;;5104021;27;20006;-46
2022/01/28 10:09:12;;;;;;;;;;;20.30;41.40;;;;;;5124563;27;19919;-47
2022/01/28 10:11:43;;;;;;;;;;;20.30;41.40;;;;;;5143943;27;19947;-46
2022/01/28 10:14:13;;;;;;;;;;;20.30;41.50;;;;;;5124641;27;19920;-46
2022/01/28 10:16:40;;;;;;;;;;;20.30;41.50;;;;;;5137850;27;20014;-48
2022/01/28 10:19:07;;;;;;;;;;;20.30;41.60;;;;;;5104411;27;20111;-48
2022/01/28 10:21:36;;;;;;;;;;;20.40;41.70;;;;;;5118858;27;19928;-47
2022/01/28 10:24:04;;;;;;;;;;;20.30;41.60;;;;;;5105632;27;19920;-42
2022/01/28 10:26:31;;;;;;;;;;;20.40;41.70;;;;;;5103327;27;20024;-45
2022/01/28 10:28:59;;;;;;;;;;;20.40;41.70;;;;;;5097116;27;19998;-47
2022/01/28 10:31:40;;;;;;;;;;;20.40;41.70;;;;;;5105392;27;20051;-45
2022/01/28 10:34:11;;;;;;;;;;;20.40;42.30;;;;;;5122858;27;20579;-45
2022/01/28 10:36:38;;;;;;;;;;;20.40;41.70;;;;;;5104067;28;19919;-46
2022/01/28 10:39:05;;;;;;;;;;;20.40;41.70;;;;;;5104286;27;19926;-47
2022/01/28 10:41:32;;;;;;;;;;;20.40;41.80;;;;;;5105866;28;20248;-47
2022/01/28 10:44:00;;;;;;;;;;;20.40;41.80;;;;;;5102500;28;20879;-51
2022/01/28 10:46:30;;;;;;;;;;;20.40;41.80;;;;;;5122335;28;20095;-46
2022/01/28 10:48:58;;;;;;;;;;;20.40;41.80;;;;;;5105898;28;19935;-49
2022/01/28 10:51:36;;;;;;;;;;;20.40;41.80;;;;;;5098820;28;19926;-44
2022/01/28 10:54:04;;;;;;;;;;;20.40;41.80;;;;;;5106967;28;19919;-47
2022/01/28 10:56:30;;;;;;;;;;;20.40;41.80;;;;;;5105236;28;20075;-45
2022/01/28 10:58:58;;;;;;;;;;;20.40;41.90;;;;;;5123820;28;19990;-49
2022/01/28 11:01:28;;;;;;;;;;;20.40;41.90;;;;;;5105766;28;19995;-45
2022/01/28 11:03:55;;;;;;;;;;;20.40;41.90;;;;;;5098290;28;19966;-46
2022/01/28 11:06:22;;;;;;;;;;;20.40;41.90;;;;;;5109522;28;19926;-46
2022/01/28 11:08:48;;;;;;;;;;;20.40;41.90;;;;;;5139465;27;20418;-44
2022/01/28 11:11:15;;;;;;;;;;;20.40;41.90;;;;;;5107285;28;19953;-47
2022/01/28 11:13:42;;;;;;;;;;;20.40;41.90;;;;;;5117659;28;19988;-44
2022/01/28 11:16:09;;;;;;;;;;;20.40;41.90;;;;;;5105750;27;19919;-47
2022/01/28 11:18:37;;;;;;;;;;;20.40;41.90;;;;;;5110630;27;19930;-43
2022/01/28 11:21:06;;;;;;;;;;;20.40;41.90;;;;;;5111362;27;19923;-43
2022/01/28 11:23:34;;;;;;;;;;;20.50;42.00;;;;;;5104143;28;19927;-44
2022/01/28 11:26:06;;;;;;;;;;;20.50;42.00;;;;;;5110015;27;19919;-46
2022/01/28 11:28:41;;;;;;;;;;;20.50;42.00;;;;;;5111234;27;19919;-45
2022/01/28 11:31:08;;;;;;;;;;;20.50;42.00;;;;;;5106494;27;20436;-49
2022/01/28 11:33:47;;;;;;;;;;;20.50;42.00;;;;;;5112821;27;19927;-47
2022/01/28 11:36:14;;;;;;;;;;;20.50;42.10;;;;;;5105752;27;20261;-45
2022/01/28 11:38:44;;;;;;;;;;;20.50;41.80;;;;;;5120804;27;19976;-49
2022/01/28 11:41:12;;;;;;;;;;;20.50;41.50;;;;;;5093089;28;19955;-47
2022/01/28 11:43:49;;;;;;;;;;;20.50;41.40;;;;;;5091869;27;19932;-49
2022/01/28 11:46:17;;;;;;;;;;;20.40;40.80;;;;;;5101867;27;19987;-50
2022/01/28 11:49:14;;;;;;;;;;;20.40;40.60;;;;;;5095001;27;20233;-52
2022/01/28 11:51:43;;;;;;;;;;;20.40;40.50;;;;;;5093438;28;20018;-53
2022/01/28 11:54:11;;;;;;;;;;;20.30;40.10;;;;;;5109396;27;19924;-50
2022/01/28 11:56:37;;;;;;;;;;;20.30;39.70;;;;;;5089461;28;20420;-48
2022/01/28 11:59:04;;;;;;;;;;;20.30;39.60;;;;;;5100281;27;19923;-52
2022/01/28 12:01:46;;;;;;;;;;;20.30;39.50;;;;;;5100785;27;19970;-49
2022/01/28 12:04:34;;;;;;;;;;;20.30;39.40;;;;;;5094390;27;20309;-48
2022/01/28 12:07:03;;;;;;;;;;;20.20;39.90;;;;;;5116084;27;20018;-47
2022/01/28 12:09:30;;;;;;;;;;;20.20;39.40;;;;;;5124969;27;19959;-49
2022/01/28 12:11:57;;;;;;;;;;;20.20;39.30;;;;;;5133817;27;19984;-47
2022/01/28 12:14:39;;;;;;;;;;;20.20;39.30;;;;;;5097513;27;20014;-48
2022/01/28 12:17:21;;;;;;;;;;;20.20;39.20;;;;;;5118458;27;19919;-50
2022/01/28 12:19:48;;;;;;;;;;;20.20;39.10;;;;;;5123835;27;19920;-45
2022/01/28 12:22:17;;;;;;;;;;;20.20;39.10;;;;;;5106486;27;19966;-48
2022/01/28 12:24:43;;;;;;;;;;;20.10;39.00;;;;;;5103045;27;20191;-52
2022/01/28 12:27:11;;;;;;;;;;;20.20;39.00;;;;;;5132996;27;19924;-52
2022/01/28 12:29:43;;;;;;;;;;;20.20;39.00;;;;;;5106603;27;19925;-48
2022/01/28 12:32:11;;;;;;;;;;;20.10;38.90;;;;;;5106804;27;20003;-55
2022/01/28 12:34:42;;;;;;;;;;;20.10;38.80;;;;;;5106902;27;20287;-45
2022/01/28 12:37:10;;;;;;;;;;;20.10;38.90;;;;;;5108297;27;20008;-55
2022/01/28 12:39:43;;;;;;;;;;;20.10;38.90;;;;;;5098440;27;20004;-53
2022/01/28 12:42:22;;;;;;;;;;;20.10;38.90;;;;;;5126605;27;19919;-48
2022/01/28 12:44:51;;;;;;;;;;;20.10;38.90;;;;;;5105342;27;20313;-49
2022/01/28 12:47:18;;;;;;;;;;;20.10;38.90;;;;;;5100645;27;19919;-45
2022/01/28 12:49:46;;;;;;;;;;;20.10;38.90;;;;;;5113823;27;20067;-47
2022/01/28 12:52:13;;;;;;;;;;;20.10;38.90;;;;;;5102164;27;19970;-51
2022/01/28 12:54:41;;;;;;;;;;;20.10;38.90;;;;;;5102186;27;20337;-45
2022/01/28 12:57:09;;;;;;;;;;;20.10;38.80;;;;;;5106935;27;19919;-51
2022/01/28 12:59:36;;;;;;;;;;;20.10;38.80;;;;;;5105020;27;19927;-51
2022/01/28 13:02:03;;;;;;;;;;;20.10;38.80;;;;;;5122033;27;19923;-49
2022/01/28 13:04:52;;;;;;;;;;;20.10;38.90;;;;;;5120142;27;19972;-48
2022/01/28 13:10:06;;;;;;;;;;;20.10;39.00;;;;;;5125193;27;20351;-48
2022/01/28 13:12:32;;;;;;;;;;;20.10;39.00;;;;;;5099106;27;19927;-52
2022/01/28 13:15:03;;;;;;;;;;;20.10;38.90;;;;;;5133206;27;19923;-51
2022/01/28 13:17:30;;;;;;;;;;;20.10;38.90;;;;;;5096046;27;19999;-51
2022/01/28 13:19:57;;;;;;;;;;;20.10;39.00;;;;;;5119257;27;19928;-48
2022/01/28 13:22:25;;;;;;;;;;;20.10;39.00;;;;;;5098866;27;19931;-47
2022/01/28 13:24:52;;;;;;;;;;;20.10;39.00;;;;;;5092481;27;19919;-50
2022/01/28 13:27:21;;;;;;;;;;;20.10;38.80;;;;;;5102114;27;20012;-53
2022/01/28 13:29:50;;;;;;;;;;;20.10;38.80;;;;;;5106093;27;20374;-54
2022/01/28 13:32:18;;;;;;;;;;;20.10;38.80;;;;;;5119302;27;19920;-48
2022/01/28 13:34:49;;;;;;;;;;;20.10;38.70;;;;;;5103984;27;20329;-48
2022/01/28 13:37:32;;;;;;;;;;;20.00;38.60;;;;;;5123189;27;19972;-52
2022/01/28 13:39:58;;;;;;;;;;;20.00;38.60;;;;;;5118118;27;20247;-49
2022/01/28 13:42:27;;;;;;;;;;;20.00;38.70;;;;;;5106467;27;20272;-45
2022/01/28 13:44:56;;;;;;;;;;;20.00;38.80;;;;;;5106374;27;19968;-45
2022/01/28 13:47:22;;;;;;;;;;;20.10;39.00;;;;;;5124045;27;19942;-45
2022/01/28 13:49:56;;;;;;;;;;;20.10;39.20;;;;;;5104474;27;19919;-47
2022/01/28 13:52:29;;;;;;;;;;;20.10;39.30;;;;;;5107681;27;19935;-49
2022/01/28 13:54:56;;;;;;;;;;;20.10;39.50;;;;;;5103924;27;19934;-48
2022/01/28 13:57:24;;;;;;;;;;;20.10;39.60;;;;;;5108794;27;19925;-43
2022/01/28 13:59:55;;;;;;;;;;;20.10;39.70;;;;;;5104810;27;19966;-45
2022/01/28 14:02:22;;;;;;;;;;;20.10;39.80;;;;;;5101902;27;20048;-45
2022/01/28 14:04:49;;;;;;;;;;;20.20;39.90;;;;;;5100277;27;20355;-45
2022/01/28 14:07:17;;;;;;;;;;;20.20;40.00;;;;;;5103382;27;20055;-44
2022/01/28 14:09:45;;;;;;;;;;;20.20;40.10;;;;;;5102891;27;19945;-46
2022/01/28 14:12:13;;;;;;;;;;;20.20;40.20;;;;;;5125665;27;19976;-43
2022/01/28 14:14:45;;;;;;;;;;;20.20;40.20;;;;;;5106575;27;20022;-45
2022/01/28 14:17:14;;;;;;;;;;;20.20;40.30;;;;;;5109612;27;19926;-46
2022/01/28 14:19:43;;;;;;;;;;;20.30;40.40;;;;;;5108263;27;19926;-43
2022/01/28 14:22:12;;;;;;;;;;;20.30;40.40;;;;;;5106939;27;19951;-47
2022/01/28 14:24:39;;;;;;;;;;;20.30;40.50;;;;;;5127229;27;19937;-47
2022/01/28 14:27:14;;;;;;;;;;;20.30;40.50;;;;;;5138492;27;19959;-44
2022/01/28 14:29:50;;;;;;;;;;;20.30;40.50;;;;;;5103651;27;19919;-44
2022/01/28 14:32:21;;;;;;;;;;;20.30;40.60;;;;;;5125817;27;20378;-44
2022/01/28 14:34:48;;;;;;;;;;;20.30;40.60;;;;;;5101033;28;19923;-49
2022/01/28 14:37:15;;;;;;;;;;;20.30;40.60;;;;;;5104265;28;19924;-42
2022/01/28 14:39:48;;;;;;;;;;;20.30;40.70;;;;;;5106004;28;20098;-46
2022/01/28 14:42:15;;;;;;;;;;;20.40;40.80;;;;;;5119411;27;19955;-44
2022/01/28 14:44:43;;;;;;;;;;;20.40;40.80;;;;;;5098821;28;20017;-46
2022/01/28 14:47:09;;;;;;;;;;;20.40;40.90;;;;;;5102826;28;19929;-46
2022/01/28 14:49:37;;;;;;;;;;;20.40;41.50;;;;;;5105577;27;19929;-43
2022/01/28 14:52:07;;;;;;;;;;;20.40;41.00;;;;;;5098324;28;19923;-45
2022/01/28 14:54:36;;;;;;;;;;;20.40;41.00;;;;;;5101714;27;19935;-46
2022/01/28 14:57:07;;;;;;;;;;;20.40;41.00;;;;;;5104420;27;19924;-48
2022/01/28 14:59:34;;;;;;;;;;;20.40;41.00;;;;;;5113215;27;19931;-49
2022/01/28 15:02:01;;;;;;;;;;;20.40;41.00;;;;;;5110923;27;20485;-45
2022/01/28 15:04:28;;;;;;;;;;;20.40;41.10;;;;;;5124358;27;19919;-47
2022/01/28 15:06:56;;;;;;;;;;;20.40;41.10;;;;;;5109645;27;19920;-48
2022/01/28 15:09:23;;;;;;;;;;;20.40;41.10;;;;;;5101626;27;19970;-46
2022/01/28 15:11:50;;;;;;;;;;;20.40;41.20;;;;;;5104648;27;19923;-42
2022/01/28 15:14:17;;;;;;;;;;;20.40;41.10;;;;;;5098816;27;19930;-46
2022/01/28 15:16:44;;;;;;;;;;;20.40;41.20;;;;;;5107874;27;19919;-46
2022/01/28 15:19:11;;;;;;;;;;;20.40;41.20;;;;;;5115412;27;19923;-46
2022/01/28 15:21:37;;;;;;;;;;;20.50;41.30;;;;;;5108056;27;19977;-47
2022/01/28 15:24:06;;;;;;;;;;;20.40;41.80;;;;;;5104673;27;20216;-48